EW4699 Eidsvoll NO current weather conditions

sailwx.info

Wind from 217 at 1 knots gusting 7

Air temperature 3.3° C
Dewpoint 2.6° C

Last reported at 2019-Dec-06 01:46 UTC.
Time now 2019-Dec-06 03:16 UTC

Location: N 60°17' E 011°09'.
View on Google Maps.

See reports from other nearby stations

  
Tides and Currents Weather Stations Pressure Air Temp Water Temp Dewpoint Dewpoint Depression Visibility Wind Speed Wind Dir Waves Ship Positions
date/time (UTC)wind fromknots sea level pressurealtimeterstation pressurevisibilityair tempwater tempwave heightnotes
2019-Dec-06 01:46 217 1 gusting 7 3.3
2019-Dec-06 01:16 190 5 gusting 10 3.9
2019-Dec-06 00:48 161 4 gusting 8 3.9
2019-Dec-06 00:17 178 4 gusting 9 3.9
2019-Dec-05 23:46 184 3 gusting 8 4.4
2019-Dec-05 23:16 209 5 gusting 13 4.4
2019-Dec-05 22:46 221 2 gusting 6 4.4
2019-Dec-05 22:17 186 3 gusting 8 4.4
2019-Dec-05 21:47 161 2 gusting 6 4.4
2019-Dec-05 21:16 159 4 gusting 8 4.4
2019-Dec-05 20:46 202 6 gusting 13 4.4
2019-Dec-05 20:17 209 4 gusting 12 4.4
2019-Dec-05 19:47 163 5 gusting 13 3.9
2019-Dec-05 19:16 229 3 gusting 12 3.9
2019-Dec-05 18:48 207 2 gusting 9 3.9
2019-Dec-05 18:16 179 4 gusting 10 3.9
2019-Dec-05 17:46 145 3 gusting 8 3.3
2019-Dec-05 17:16 188 1 gusting 10 2.8
2019-Dec-05 16:47 200 3 gusting 6 2.2
2019-Dec-05 16:30 180 2 gusting 6 2.2
2019-Dec-05 16:16 175 2.2
2019-Dec-05 15:47 226 3 gusting 9 2.2
2019-Dec-05 15:17 171 5 gusting 11 2.8
2019-Dec-05 14:46 178 5 gusting 10 2.8
2019-Dec-05 14:17 243 5 gusting 16 2.8
2019-Dec-05 13:46 213 8 gusting 19 2.8
2019-Dec-05 13:18 240 9 gusting 20 3.3
2019-Dec-05 12:47 200 6 gusting 16 2.8
2019-Dec-05 12:18 178 6 gusting 14 2.8
2019-Dec-05 10:46 233 9 gusting 15 2.8
2019-Dec-05 10:16 220 7 gusting 17 2.8
2019-Dec-05 09:47 191 4 gusting 13 2.8
2019-Dec-05 09:18 202 3 gusting 8 2.2
2019-Dec-05 08:47 214 6 gusting 15 2.8
2019-Dec-05 07:46 166 5 gusting 13 2.8
2019-Dec-05 07:17 180 3 gusting 10 2.8
2019-Dec-05 06:47 188 5 gusting 13 2.8
2019-Dec-05 06:16 146 6 gusting 13 2.8
2019-Dec-05 05:47 178 6 gusting 11 2.8
2019-Dec-05 05:30 194 6 gusting 12 2.8
2019-Dec-05 05:17 202 5 gusting 12 2.8
2019-Dec-05 04:49 219 4 gusting 14 2.8
2019-Dec-05 04:16 195 6 gusting 13 2.8
2019-Dec-05 03:46 240 6 gusting 14 2.2
2019-Dec-05 03:17 198 4 gusting 9 2.2
2019-Dec-05 02:47 183 4 gusting 8 1.7
2019-Dec-05 02:17 180 3 gusting 7 1.7
2019-Dec-05 01:46 217 2 gusting 6 1.7
2019-Dec-05 01:17 213 1 gusting 4 1.7
2019-Dec-05 00:47 049 1.7
2019-Dec-05 00:18 192 4 gusting 11 1.7
2019-Dec-04 23:47 209 5 gusting 13 1.7
2019-Dec-04 23:17 163 3 gusting 11 1.1
2019-Dec-04 22:47 211 3 gusting 6 0.6
2019-Dec-04 22:17 116 0 gusting 3 -0.0
2019-Dec-04 21:48 084 -0.0
2019-Dec-04 21:17 090 0 gusting 2 -0.6
2019-Dec-04 20:47 084 0 gusting 2 -1.1
2019-Dec-04 20:17 084 0 gusting 2 -1.1
2019-Dec-04 19:47 084 -0.6
2019-Dec-04 19:17 085 -0.0
2019-Dec-04 18:46 086 -0.0
2019-Dec-04 18:16 070 -0.0
2019-Dec-04 17:46 111 -0.6
2019-Dec-04 17:18 126 0 gusting 3 -1.1
2019-Dec-04 16:48 223 -1.7
2019-Dec-04 16:18 223 -1.7
2019-Dec-04 16:06 257 -1.7
2019-Dec-04 15:32 263 -1.7
2019-Dec-04 15:02 263 -1.1
2019-Dec-04 14:31 263 -1.1
2019-Dec-04 14:02 263 -1.1
2019-Dec-04 13:01 263 -1.1
2019-Dec-04 12:03 262 -2.2
2019-Dec-04 11:31 262 -2.2
2019-Dec-04 11:01 262 -2.2
2019-Dec-04 10:31 262 -2.8
2019-Dec-04 10:01 266 -3.9
2019-Dec-04 09:31 109 -3.9
2019-Dec-04 09:01 109 -4.4
2019-Dec-04 08:32 109 -4.4
2019-Dec-04 08:02 109 -5.0
2019-Dec-04 07:31 109 -5.0
2019-Dec-04 07:01 109 -5.0
2019-Dec-04 06:32 109 -4.4
2019-Dec-04 06:02 109 -4.4
2019-Dec-04 05:31 109 -3.9
2019-Dec-04 05:01 148 -3.9
2019-Dec-04 04:32 248 -3.3
2019-Dec-04 04:02 248 -3.3
2019-Dec-04 03:31 250 -3.3
2019-Dec-04 03:03 195 -3.3